Time;durP1;ratioP1;P1;durP2;ratioP2;P2;SDS_P1;SDS_P2;PMS_P1;PMS_P2;Temp;Humidity;BMP_temperature;BMP_pressure;BME280_temperature;BME280_humidity;BME280_pressure;Samples;Min_cycle;Max_cycle;Signal;HPM_P1;HPM_P2
2021/12/04 00:00:14;;;;;;;0.90;0.65;;;;;;;5.33;77.38;99540.22;5168968;28;20479;-84
2021/12/04 00:02:44;;;;;;;0.60;0.60;;;;;;;5.25;77.61;99544.75;5151084;28;20033;-85
2021/12/04 00:05:15;;;;;;;0.40;0.40;;;;;;;5.33;77.38;99535.03;5172866;28;20051;-85
2021/12/04 00:07:46;;;;;;;0.47;0.47;;;;;;;5.26;77.91;99541.28;5184701;28;20033;-85
2021/12/04 00:10:20;;;;;;;0.50;0.50;;;;;;;5.28;77.83;99538.66;5183004;28;20042;-85
2021/12/04 00:12:52;;;;;;;0.40;0.40;;;;;;;5.26;77.42;99533.47;5175770;28;20030;-85
2021/12/04 00:15:22;;;;;;;0.40;0.40;;;;;;;5.26;77.38;99530.03;5190276;28;20034;-84
2021/12/04 00:17:56;;;;;;;0.60;0.60;;;;;;;5.25;78.11;99530.91;5199317;28;20059;-85
2021/12/04 00:20:30;;;;;;;0.50;0.50;;;;;;;5.35;77.22;99517.63;5184323;28;20034;-85
2021/12/04 00:23:01;;;;;;;0.40;0.40;;;;;;;5.35;77.68;99515.03;5198734;28;20033;-85
2021/12/04 00:25:31;;;;;;;0.50;0.50;;;;;;;5.29;77.51;99522.16;5190530;28;20034;-87
2021/12/04 00:28:02;;;;;;;0.40;0.40;;;;;;;5.28;77.59;99518.69;5192660;28;20148;-84
2021/12/04 00:30:33;;;;;;;0.32;0.32;;;;;;;5.26;78.02;99515.25;5147645;28;20381;-86
2021/12/04 00:33:20;;;;;;;0.35;0.35;;;;;;;5.32;77.22;99512.53;5176776;28;20041;-86
2021/12/04 00:36:00;;;;;;;0.60;0.60;;;;;;;5.28;77.51;99499.63;5199240;28;20073;-85
2021/12/04 00:49:46;;;;;;;0.40;0.40;;;;;;;5.30;77.78;99493.50;5197340;28;20129;-86
2021/12/04 00:52:17;;;;;;;1.17;0.82;;;;;;;5.34;77.08;99479.50;5155060;28;20037;-84
2021/12/04 00:54:47;;;;;;;0.73;0.73;;;;;;;5.39;77.21;99473.34;5171390;28;20037;-86
2021/12/04 00:57:18;;;;;;;0.70;0.70;;;;;;;5.30;77.85;99471.81;5174221;28;20021;-85
2021/12/04 00:59:48;;;;;;;0.40;0.40;;;;;;;5.33;77.60;99472.59;5172101;28;20050;-86
2021/12/04 01:02:20;;;;;;;0.40;0.40;;;;;;;5.30;77.64;99470.09;5187470;28;20033;-84
2021/12/04 01:04:51;;;;;;;0.40;0.40;;;;;;;5.39;77.04;99470.75;5163676;28;20073;-85
2021/12/04 01:07:22;;;;;;;0.50;0.50;;;;;;;5.33;77.09;99462.19;5179805;28;20049;-86
2021/12/04 01:09:52;;;;;;;0.50;0.50;;;;;;;5.29;77.58;99462.34;5191644;28;20042;-85
2021/12/04 01:12:23;;;;;;;0.47;0.47;;;;;;;5.35;77.63;99455.22;5162181;28;20034;-86
2021/12/04 01:14:53;;;;;;;0.70;0.70;;;;;;;5.31;77.45;99451.00;5170902;28;20197;-84
2021/12/04 01:17:24;;;;;;;0.50;0.50;;;;;;;5.26;77.69;99447.63;5147809;28;20048;-84
2021/12/04 01:19:54;;;;;;;0.45;0.45;;;;;;;5.31;77.60;99438.00;5169618;28;20042;-86
2021/12/04 01:22:26;;;;;;;0.32;0.32;;;;;;;5.31;77.24;99438.00;5162019;28;20022;-85
2021/12/04 01:24:57;;;;;;;0.40;0.40;;;;;;;5.34;77.59;99437.06;5171343;28;20050;-85
2021/12/04 01:27:27;;;;;;;0.40;0.40;;;;;;;5.35;77.39;99429.19;5167028;28;20048;-85
2021/12/04 01:29:58;;;;;;;0.30;0.30;;;;;;;5.32;78.10;99438.84;5168391;28;20045;-84
2021/12/04 01:32:28;;;;;;;0.40;0.40;;;;;;;5.26;78.01;99429.44;5150038;28;20061;-85
2021/12/04 01:34:59;;;;;;;0.40;0.40;;;;;;;5.27;77.90;99425.09;5171324;28;20093;-86
2021/12/04 01:37:29;;;;;;;0.50;0.50;;;;;;;5.31;78.33;99432.78;5180870;28;20030;-82
2021/12/04 01:40:00;;;;;;;0.30;0.30;;;;;;;5.40;77.92;99428.25;5157494;28;20038;-82
2021/12/04 01:42:34;;;;;;;1.02;0.98;;;;;;;5.36;77.46;99430.91;5164810;28;20030;-81
2021/12/04 01:45:07;;;;;;;0.50;0.50;;;;;;;5.36;78.06;99430.91;5180126;28;20388;-82
2021/12/04 01:47:38;;;;;;;0.40;0.40;;;;;;;5.33;77.97;99433.59;5187226;28;20030;-82
2021/12/04 01:50:09;;;;;;;0.50;0.50;;;;;;;5.34;77.98;99435.28;5159056;28;20044;-81
2021/12/04 01:52:39;;;;;;;0.65;0.65;;;;;;;5.32;78.13;99434.50;5164121;28;20021;-81
2021/12/04 01:55:10;;;;;;;0.43;0.43;;;;;;;5.28;78.43;99425.06;5189758;28;20507;-82
2021/12/04 01:57:40;;;;;;;0.40;0.40;;;;;;;5.30;78.39;99422.41;5171011;28;20075;-83
2021/12/04 02:00:11;;;;;;;0.35;0.35;;;;;;;5.32;78.53;99421.50;5137684;28;20504;-83
2021/12/04 02:02:42;;;;;;;0.40;0.40;;;;;;;5.33;78.33;99428.38;5160842;28;20033;-82
2021/12/04 02:05:13;;;;;;;0.40;0.40;;;;;;;5.27;78.17;99412.09;5143888;28;20038;-82
2021/12/04 02:07:45;;;;;;;0.52;0.52;;;;;;;5.28;78.58;99417.25;5175328;28;20030;-83
2021/12/04 02:10:16;;;;;;;0.40;0.40;;;;;;;5.31;78.62;99411.97;5147517;28;20068;-82
2021/12/04 02:12:48;;;;;;;0.40;0.40;;;;;;;5.27;78.45;99412.09;5182948;28;20124;-82
2021/12/04 02:15:20;;;;;;;0.40;0.40;;;;;;;5.35;78.15;99418.78;5177442;28;20134;-82
2021/12/04 02:17:50;;;;;;;0.40;0.40;;;;;;;5.40;78.35;99416.06;5162134;28;20033;-83
2021/12/04 02:20:23;;;;;;;0.50;0.50;;;;;;;5.39;78.28;99413.53;5163703;28;20037;-81
2021/12/04 02:22:56;;;;;;;0.50;0.50;;;;;;;5.40;78.71;99410.88;5194534;28;20030;-82
2021/12/04 02:25:26;;;;;;;0.50;0.50;;;;;;;5.38;78.47;99411.81;5183006;28;20334;-82
2021/12/04 02:27:58;;;;;;;0.50;0.50;;;;;;;5.39;78.28;99409.16;5146783;28;20034;-83
2021/12/04 02:30:32;;;;;;;0.40;0.40;;;;;;;5.31;78.54;99406.78;5154704;28;20364;-83
2021/12/04 02:33:11;;;;;;;0.40;0.40;;;;;;;5.40;78.60;99399.63;5157974;28;20022;-83
2021/12/04 02:35:48;;;;;;;0.50;0.50;;;;;;;5.40;78.25;99402.22;5175775;28;20038;-82
2021/12/04 02:38:25;;;;;;;0.40;0.40;;;;;;;5.41;78.42;99398.72;5174881;28;20709;-83
2021/12/04 02:40:57;;;;;;;0.40;0.40;;;;;;;5.42;78.11;99392.59;5140496;28;20049;-83
2021/12/04 02:43:33;;;;;;;0.40;0.40;;;;;;;5.44;77.95;99390.81;5143825;28;20112;-83
2021/12/04 02:46:03;;;;;;;0.47;0.47;;;;;;;5.41;78.65;99388.34;5157588;28;20045;-83
2021/12/04 02:48:34;;;;;;;0.40;0.40;;;;;;;5.41;78.71;99376.16;5159913;28;20030;-83
2021/12/04 02:51:04;;;;;;;0.47;0.47;;;;;;;5.39;79.08;99366.69;5164473;28;20041;-82
2021/12/04 02:53:35;;;;;;;0.57;0.57;;;;;;;5.42;78.24;99366.59;5144221;28;20534;-82
2021/12/04 02:56:06;;;;;;;0.50;0.50;;;;;;;5.46;78.65;99368.22;5159920;28;20045;-82
2021/12/04 02:58:38;;;;;;;0.50;0.50;;;;;;;5.41;78.40;99357.13;5152073;28;20034;-82
2021/12/04 03:01:09;;;;;;;0.40;0.40;;;;;;;5.40;79.01;99356.25;5143864;28;20463;-83
2021/12/04 03:03:40;;;;;;;0.70;0.70;;;;;;;5.45;78.26;99356.13;5143395;28;20105;-83
2021/12/04 03:06:11;;;;;;;0.30;0.30;;;;;;;5.50;78.40;99349.03;5160217;28;20243;-82
2021/12/04 03:08:41;;;;;;;0.40;0.40;;;;;;;5.49;78.81;99342.16;5151151;28;20025;-83
2021/12/04 03:11:12;;;;;;;0.40;0.40;;;;;;;5.55;78.66;99338.50;5157014;28;20529;-83
2021/12/04 03:13:43;;;;;;;0.85;0.85;;;;;;;5.43;78.56;99340.56;5145395;28;20491;-83
2021/12/04 03:16:13;;;;;;;0.40;0.40;;;;;;;5.41;78.99;99325.91;5142056;28;20042;-82
2021/12/04 03:18:44;;;;;;;0.40;0.40;;;;;;;5.46;78.69;99316.19;5166753;28;20072;-82
2021/12/04 03:21:14;;;;;;;2.10;1.52;;;;;;;5.46;78.81;99316.19;5156845;28;20086;-83
2021/12/04 03:24:00;;;;;;;0.40;0.40;;;;;;;5.44;78.85;99302.38;5168184;28;20041;-83
2021/12/04 03:26:32;;;;;;;0.40;0.40;;;;;;;5.49;78.69;99300.53;5156869;28;20026;-82
2021/12/04 03:29:06;;;;;;;0.35;0.35;;;;;;;5.51;78.68;99285.69;5154013;28;20045;-83
2021/12/04 03:42:45;;;;;;;0.47;0.47;;;;;;;5.53;78.10;99275.25;5182864;28;20033;-81
2021/12/04 03:45:17;;;;;;;0.40;0.40;;;;;;;5.46;78.60;99269.38;5162305;28;20048;-81
2021/12/04 03:47:51;;;;;;;0.45;0.45;;;;;;;5.48;79.04;99278.00;5156030;28;20037;-82
2021/12/04 03:50:21;;;;;;;0.75;0.75;;;;;;;5.49;78.41;99269.28;5177801;28;20036;-82
2021/12/04 03:52:51;;;;;;;0.40;0.40;;;;;;;5.53;78.38;99270.91;5165904;28;20025;-83
2021/12/04 03:55:24;;;;;;;0.50;0.50;;;;;;;5.47;78.56;99268.47;5146823;28;20050;-82
2021/12/04 03:57:55;;;;;;;0.70;0.70;;;;;;;5.44;78.34;99278.97;5159161;28;20336;-82
2021/12/04 04:00:28;;;;;;;0.93;0.93;;;;;;;5.47;78.35;99278.88;5162816;28;20172;-82
2021/12/04 04:02:59;;;;;;;1.08;1.02;;;;;;;5.42;78.97;99270.34;5141078;28;20389;-83
2021/12/04 04:05:29;;;;;;;0.55;0.55;;;;;;;5.43;79.05;99264.25;5160201;28;20038;-83
2021/12/04 04:08:00;;;;;;;0.50;0.50;;;;;;;5.43;78.86;99265.13;5139657;28;20089;-82
2021/12/04 04:10:30;;;;;;;0.50;0.50;;;;;;;5.48;78.49;99263.22;5179773;28;20038;-82
2021/12/04 04:13:01;;;;;;;0.88;0.88;;;;;;;5.50;77.97;99269.25;5164534;28;20085;-83
2021/12/04 04:15:31;;;;;;;0.40;0.40;;;;;;;5.51;78.75;99267.47;5168595;28;20577;-82
2021/12/04 04:18:02;;;;;;;0.50;0.50;;;;;;;5.47;78.88;99266.72;5176873;28;20034;-82
2021/12/04 04:20:33;;;;;;;0.47;0.47;;;;;;;5.44;78.54;99265.97;5146585;28;20124;-81
2021/12/04 04:23:04;;;;;;;0.70;0.70;;;;;;;5.48;78.96;99267.59;5179762;28;20488;-82
2021/12/04 04:25:34;;;;;;;0.95;0.95;;;;;;;5.50;78.40;99265.78;5166685;28;20042;-82
2021/12/04 04:28:05;;;;;;;0.60;0.60;;;;;;;5.51;78.00;99251.88;5152907;28;20539;-82
2021/12/04 04:30:36;;;;;;;0.45;0.45;;;;;;;5.47;78.84;99252.88;5178335;28;20034;-83
2021/12/04 04:33:09;;;;;;;0.63;0.63;;;;;;;5.47;78.56;99253.72;5162569;28;20073;-82
2021/12/04 04:35:43;;;;;;;1.67;1.58;;;;;;;5.51;78.50;99251.88;5182451;28;20046;-82
2021/12/04 04:38:44;;;;;;;0.40;0.40;;;;;;;5.49;78.86;99249.31;5162889;28;20044;-83
2021/12/04 04:58:27;;;;;;;0.52;0.52;;;;;;;5.49;78.82;99241.53;5152514;28;20578;-82
2021/12/04 05:12:23;;;;;;;0.80;0.80;;;;;;;5.56;78.17;99223.13;5168298;28;20800;-83
2021/12/04 05:15:12;;;;;;;0.50;0.50;;;;;;;5.50;79.11;99216.34;5185322;28;20057;-83
2021/12/04 05:20:32;;;;;;;0.40;0.40;;;;;;;5.46;78.53;99217.34;5177085;28;20401;-82
2021/12/04 05:23:03;;;;;;;;;;;;;;;5.46;78.37;99219.94;5147813;28;20108;-82
2021/12/04 05:25:36;;;;;;;0.65;0.65;;;;;;;5.46;78.63;99230.34;5166853;28;19952;-82
2021/12/04 05:28:07;;;;;;;0.50;0.50;;;;;;;5.53;78.09;99231.03;5160361;28;20026;-82
2021/12/04 05:30:38;;;;;;;0.50;0.50;;;;;;;5.50;78.35;99235.41;5156860;28;20474;-82
2021/12/04 05:33:09;;;;;;;0.55;0.55;;;;;;;5.49;78.43;99227.66;5165397;28;20484;-83
2021/12/04 05:35:39;;;;;;;0.45;0.45;;;;;;;5.40;79.27;99223.59;5164311;28;20041;-82
2021/12/04 05:38:10;;;;;;;0.63;0.63;;;;;;;5.44;78.17;99213.94;5156758;28;20117;-82
2021/12/04 05:40:40;;;;;;;0.80;0.80;;;;;;;5.51;78.67;99210.25;5162115;28;20520;-83
2021/12/04 05:43:12;;;;;;;0.50;0.50;;;;;;;5.46;78.31;99210.38;5173563;28;20396;-83
2021/12/04 05:45:52;;;;;;;0.40;0.40;;;;;;;5.46;78.32;99212.16;5163553;28;20478;-82
2021/12/04 05:56:40;;;;;;;0.70;0.70;;;;;;;5.52;78.45;99209.34;5188054;28;20531;-83
2021/12/04 05:59:10;;;;;;;0.70;0.70;;;;;;;5.46;78.77;99212.97;5143030;28;20097;-83
2021/12/04 06:01:41;;;;;;;0.60;0.60;;;;;;;5.45;78.43;99216.50;5142504;28;20033;-82
2021/12/04 06:04:11;;;;;;;0.50;0.50;;;;;;;5.44;78.69;99211.34;5143120;28;20129;-82
2021/12/04 06:06:44;;;;;;;0.50;0.50;;;;;;;5.48;78.73;99215.56;5148061;28;20076;-83
2021/12/04 06:09:14;;;;;;;0.55;0.55;;;;;;;5.47;77.97;99206.06;5175425;28;20125;-83
2021/12/04 06:11:46;;;;;;;1.38;1.23;;;;;;;5.47;78.27;99203.44;5183302;28;20102;-83
2021/12/04 06:14:17;;;;;;;0.63;0.63;;;;;;;5.40;78.95;99196.72;5163140;28;20042;-82
2021/12/04 06:16:47;;;;;;;0.55;0.55;;;;;;;5.46;78.47;99189.56;5152159;28;20587;-82
2021/12/04 06:22:37;;;;;;;0.73;0.73;;;;;;;5.46;78.74;99197.38;5159438;28;20065;-82
2021/12/04 06:25:24;;;;;;;0.82;0.82;;;;;;;5.48;78.36;99192.16;5196172;28;20038;-82
2021/12/04 06:27:55;;;;;;;0.60;0.60;;;;;;;5.54;78.13;99197.16;5139519;28;20337;-82
2021/12/04 06:30:26;;;;;;;0.50;0.50;;;;;;;5.47;78.23;99193.88;5174154;28;20042;-82
2021/12/04 06:32:56;;;;;;;0.80;0.80;;;;;;;5.44;78.27;99198.31;5173372;28;20105;-82
2021/12/04 06:35:27;;;;;;;0.50;0.50;;;;;;;5.45;78.40;99205.25;5155727;28;20038;-83
2021/12/04 06:37:59;;;;;;;0.60;0.60;;;;;;;5.44;78.71;99196.59;5165493;28;20031;-83
2021/12/04 06:40:30;;;;;;;0.70;0.70;;;;;;;5.41;78.81;99191.47;5153539;28;20054;-82
2021/12/04 06:43:01;;;;;;;0.85;0.85;;;;;;;5.39;78.58;99184.63;5161832;28;20100;-83
2021/12/04 06:45:34;;;;;;;0.40;0.40;;;;;;;5.34;78.56;99188.19;5172183;28;20041;-83
2021/12/04 06:48:09;;;;;;;0.80;0.80;;;;;;;5.39;79.14;99187.22;5156669;28;20034;-81
2021/12/04 06:56:00;;;;;;;2.75;1.83;;;;;;;5.41;78.62;99201.03;5176127;28;20050;-80
2021/12/04 06:58:31;;;;;;;0.40;0.40;;;;;;;5.42;79.09;99194.91;5141726;28;20393;-81
2021/12/04 07:01:03;;;;;;;0.45;0.45;;;;;;;5.36;78.79;99195.97;5178284;28;20034;-81
2021/12/04 07:03:34;;;;;;;0.90;0.90;;;;;;;5.35;79.17;99202.91;5160808;28;20030;-84
2021/12/04 07:06:06;;;;;;;0.60;0.60;;;;;;;5.44;78.87;99193.13;5142425;28;20096;-81
2021/12/04 07:08:36;;;;;;;0.52;0.52;;;;;;;5.44;78.55;99188.78;5157146;28;20057;-82
2021/12/04 07:11:07;;;;;;;0.40;0.40;;;;;;;5.34;79.39;99189.97;5164147;28;20344;-81
2021/12/04 07:13:37;;;;;;;0.60;0.60;;;;;;;5.33;79.04;99193.44;5153589;28;20026;-80
2021/12/04 07:16:08;;;;;;;0.50;0.50;;;;;;;5.38;79.10;99194.16;5169877;28;20038;-82
2021/12/04 07:18:39;;;;;;;0.70;0.70;;;;;;;5.43;79.37;99196.63;5188083;28;20446;-81
2021/12/04 07:21:10;;;;;;;0.95;0.90;;;;;;;5.46;79.04;99201.75;5163562;28;20041;-82
2021/12/04 07:23:40;;;;;;;0.80;0.80;;;;;;;5.49;78.57;99206.88;5165831;28;20116;-82
2021/12/04 07:26:11;;;;;;;0.40;0.40;;;;;;;5.47;78.96;99203.44;5189901;28;20036;-82
2021/12/04 07:28:42;;;;;;;1.02;1.02;;;;;;;5.49;78.83;99204.25;5154703;28;20336;-81
2021/12/04 07:31:12;;;;;;;1.42;1.33;;;;;;;5.53;78.63;99205.84;5182328;28;20506;-81
2021/12/04 07:33:43;;;;;;;0.82;0.82;;;;;;;5.48;78.90;99197.34;5178188;28;20039;-82
2021/12/04 07:36:13;;;;;;;0.65;0.65;;;;;;;5.47;78.56;99203.44;5191100;28;20134;-82
2021/12/04 07:38:44;;;;;;;0.80;0.80;;;;;;;5.43;79.12;99197.50;5173925;28;20038;-82
2021/12/04 07:41:15;;;;;;;2.08;1.98;;;;;;;5.51;78.53;99199.84;5199347;28;20506;-82
2021/12/04 07:43:46;;;;;;;1.58;1.50;;;;;;;5.46;78.86;99206.94;5148819;28;20033;-82
2021/12/04 07:46:17;;;;;;;1.00;1.00;;;;;;;5.44;79.10;99208.72;5146571;28;20030;-82
2021/12/04 07:48:47;;;;;;;0.73;0.73;;;;;;;5.46;78.88;99212.16;5175578;28;20049;-82
2021/12/04 07:51:18;;;;;;;0.40;0.40;;;;;;;5.52;79.26;99206.75;5133220;28;20025;-82
2021/12/04 07:53:49;;;;;;;0.82;0.82;;;;;;;5.55;78.99;99205.78;5170211;28;20058;-81
2021/12/04 07:56:19;;;;;;;0.90;0.90;;;;;;;5.49;79.29;99196.47;5159603;28;20701;-82
2021/12/04 07:58:50;;;;;;;0.85;0.85;;;;;;;5.43;79.27;99194.88;5175521;28;20296;-81
2021/12/04 08:01:21;;;;;;;0.40;0.40;;;;;;;5.44;79.26;99194.00;5078376;28;20061;-83
2021/12/04 08:03:52;;;;;;;0.47;0.47;;;;;;;5.49;79.07;99189.50;5070792;28;20075;-84
2021/12/04 08:06:22;;;;;;;0.60;0.60;;;;;;;5.48;79.44;99192.97;5168523;28;20129;-84
2021/12/04 08:08:58;;;;;;;0.50;0.50;;;;;;;5.51;78.89;99185.09;5182967;28;20046;-85
2021/12/04 08:11:28;;;;;;;0.52;0.52;;;;;;;5.46;79.69;99191.34;5165735;28;20029;-85
2021/12/04 08:13:59;;;;;;;0.50;0.50;;;;;;;5.47;78.71;99193.03;5162561;28;20042;-84
2021/12/04 08:16:33;;;;;;;0.73;0.73;;;;;;;5.50;78.74;99198.13;5166604;28;20588;-82
2021/12/04 08:19:04;;;;;;;0.50;0.50;;;;;;;5.46;79.72;99197.38;5159343;28;20096;-83
2021/12/04 08:21:35;;;;;;;0.73;0.73;;;;;;;5.48;79.04;99194.75;5122846;28;20037;-87
2021/12/04 08:24:06;;;;;;;0.50;0.50;;;;;;;5.47;79.44;99190.44;5141880;28;20053;-84
2021/12/04 08:26:38;;;;;;;1.20;1.15;;;;;;;5.48;79.51;99189.53;5177870;28;20201;-86
2021/12/04 08:29:09;;;;;;;0.50;0.50;;;;;;;5.51;79.19;99186.81;5155231;28;20129;-84
2021/12/04 08:31:39;;;;;;;0.43;0.43;;;;;;;5.54;79.08;99178.94;5184070;28;20495;-84
2021/12/04 08:34:10;;;;;;;0.63;0.63;;;;;;;5.51;78.96;99182.50;5174706;28;20046;-83
2021/12/04 08:36:41;;;;;;;0.60;0.60;;;;;;;5.56;79.50;99186.69;5126027;28;20317;-83
2021/12/04 08:39:12;;;;;;;0.70;0.70;;;;;;;5.52;79.30;99183.34;5153238;28;20224;-83
2021/12/04 08:41:43;;;;;;;0.40;0.40;;;;;;;5.60;78.93;99189.16;5159636;28;20145;-84
2021/12/04 08:44:14;;;;;;;0.60;0.60;;;;;;;5.58;79.15;99185.72;5163650;28;20110;-83
2021/12/04 08:46:46;;;;;;;0.60;0.60;;;;;;;5.64;79.06;99182.97;5161580;28;20037;-83
2021/12/04 08:49:16;;;;;;;0.65;0.65;;;;;;;5.68;79.38;99175.91;5177319;28;20038;-82
2021/12/04 08:51:47;;;;;;;0.55;0.55;;;;;;;5.66;78.61;99168.13;5171097;28;20588;-83
2021/12/04 08:54:17;;;;;;;0.45;0.45;;;;;;;5.68;78.79;99163.75;5150233;28;20048;-82
2021/12/04 08:56:48;;;;;;;1.13;1.13;;;;;;;5.69;79.68;99167.22;5173876;28;20100;-83
2021/12/04 08:59:18;;;;;;;0.57;0.57;;;;;;;5.59;79.19;99179.63;5178003;28;20030;-82
2021/12/04 09:01:49;;;;;;;0.98;0.98;;;;;;;5.63;79.74;99173.44;5160383;28;20084;-81
2021/12/04 09:04:28;;;;;;;1.00;1.00;;;;;;;5.70;79.55;99168.91;5167303;28;20045;-82
2021/12/04 09:06:59;;;;;;;0.88;0.88;;;;;;;5.65;79.04;99161.25;5158804;28;20030;-83
2021/12/04 09:09:30;;;;;;;3.42;1.83;;;;;;;5.73;79.20;99170.56;5145099;28;20090;-83
2021/12/04 09:12:04;;;;;;;0.60;0.60;;;;;;;5.66;79.54;99162.94;5117586;28;21541;-83
2021/12/04 09:14:37;;;;;;;0.65;0.55;;;;;;;5.73;79.30;99162.75;5150973;28;20269;-83
2021/12/04 09:17:10;;;;;;;0.68;0.68;;;;;;;5.65;79.20;99161.25;5158554;28;20046;-83
2021/12/04 09:19:40;;;;;;;0.73;0.73;;;;;;;5.79;79.20;99146.94;5163705;28;20293;-83
2021/12/04 09:22:16;;;;;;;0.55;0.55;;;;;;;5.83;79.15;99148.50;5111462;28;1200297;-84
2021/12/04 09:24:49;;;;;;;0.50;0.50;;;;;;;5.76;79.11;99141.81;5113798;28;20254;-84
2021/12/04 09:27:46;;;;;;;0.63;0.63;;;;;;;5.77;79.67;99143.53;5144479;28;20149;-83
2021/12/04 10:17:15;;;;;;;0.77;0.77;;;;;;;6.09;79.70;99073.94;5172342;28;20514;-83
2021/12/04 10:20:40;;;;;;;1.58;1.48;;;;;;;6.14;79.15;99079.84;5156242;28;20042;-84
2021/12/04 10:22:48;;;;;;;0.40;0.40;;;;;;;5.95;78.90;99085.66;5140978;28;20052;-84
2021/12/04 10:33:57;;;;;;;0.65;0.65;;;;;;;6.12;80.02;99029.56;5166572;28;20289;-83
2021/12/04 10:36:31;;;;;;;0.60;0.60;;;;;;;6.27;79.30;99018.59;5178582;28;20376;-83
2021/12/04 10:39:03;;;;;;;;;;;;;;;6.20;78.65;99024.94;5156533;28;20462;-83
2021/12/04 10:41:45;;;;;;;0.50;0.50;;;;;;;6.24;79.13;99013.47;5169965;28;19913;-83
2021/12/04 10:44:22;;;;;;;0.60;0.60;;;;;;;6.25;79.15;99009.13;5151820;28;20046;-83
2021/12/04 10:47:06;;;;;;;0.40;0.40;;;;;;;6.22;79.35;99020.53;5170295;28;20064;-83
2021/12/04 10:49:59;;;;;;;0.50;0.50;;;;;;;6.25;79.81;99017.78;5167083;28;20041;-83
2021/12/04 10:52:58;;;;;;;1.10;1.10;;;;;;;6.29;79.42;99018.50;5163272;28;20419;-84
2021/12/04 11:20:18;;;;;;;0.50;0.50;;;;;;;6.42;79.46;98953.78;5176719;28;20041;-84
2021/12/04 11:28:22;;;;;;;1.00;1.00;;;;;;;6.42;78.58;98922.53;5195299;28;20041;-92
2021/12/04 11:45:14;;;;;;;0.98;0.98;;;;;;;6.35;79.17;98900.22;5205638;28;20045;-84
2021/12/04 11:47:50;;;;;;;0.50;0.50;;;;;;;6.40;78.73;98899.16;5180507;28;20065;-85
2021/12/04 11:50:25;;;;;;;0.73;0.73;;;;;;;6.43;79.26;98893.81;5182101;28;20046;-84
2021/12/04 11:52:59;;;;;;;0.47;0.47;;;;;;;6.42;79.00;98899.06;5162524;28;20034;-83
2021/12/04 11:55:38;;;;;;;1.00;1.00;;;;;;;6.40;78.75;98891.31;5163570;28;20085;-84
2021/12/04 11:58:20;;;;;;;0.40;0.40;;;;;;;6.43;79.18;98878.19;5176254;28;20045;-84
2021/12/04 12:01:00;;;;;;;0.77;0.77;;;;;;;6.47;78.76;98889.34;5175507;28;20043;-84
2021/12/04 12:03:35;;;;;;;0.43;0.43;;;;;;;6.51;78.53;98890.06;5165419;28;20025;-84
2021/12/04 12:06:10;;;;;;;0.47;0.47;;;;;;;6.48;78.97;98885.81;5143930;28;20112;-83
2021/12/04 12:08:45;;;;;;;0.75;0.75;;;;;;;6.43;79.27;98877.31;5177267;28;20089;-84
2021/12/04 12:11:18;;;;;;;0.60;0.60;;;;;;;6.53;79.07;98860.41;5147518;28;20034;-83
2021/12/04 12:13:51;;;;;;;3.40;0.82;;;;;;;6.55;79.17;98852.53;5160751;28;20061;-84
2021/12/04 12:16:36;;;;;;;0.50;0.50;;;;;;;6.60;79.04;98854.06;5163976;28;20034;-83
2021/12/04 12:19:21;;;;;;;0.55;0.55;;;;;;;6.64;78.58;98859.16;5176284;28;20037;-84
2021/12/04 12:36:20;;;;;;;1.35;1.35;;;;;;;6.72;78.55;98838.84;5183862;28;20041;-84
2021/12/04 12:38:53;;;;;;;0.50;0.50;;;;;;;6.77;78.03;98839.47;5199664;28;20065;-84
2021/12/04 12:41:31;;;;;;;0.65;0.65;;;;;;;6.70;78.46;98844.09;5143288;28;20117;-84
2021/12/04 12:44:05;;;;;;;1.10;1.00;;;;;;;6.63;78.47;98836.59;5158933;28;20076;-84
2021/12/04 12:46:38;;;;;;;;;;;;;;;6.67;78.75;98851.19;5161194;28;20026;-84
2021/12/04 12:49:26;;;;;;;0.98;0.98;;;;;;;6.68;78.94;98850.28;5158082;28;19921;-83
2021/12/04 12:51:59;;;;;;;0.60;0.60;;;;;;;6.64;79.02;98853.94;5162579;28;20038;-83
2021/12/04 12:55:00;;;;;;;0.50;0.50;;;;;;;6.60;79.15;98848.84;5160659;28;20448;-84
2021/12/04 12:57:36;;;;;;;0.40;0.40;;;;;;;6.71;78.91;98850.16;5169961;28;20042;-83
2021/12/04 13:12:14;;;;;;;0.82;0.82;;;;;;;6.68;79.11;98839.84;5175082;28;20105;-83
2021/12/04 13:14:50;;;;;;;0.40;0.40;;;;;;;6.77;78.70;98839.47;5143449;28;20050;-83
2021/12/04 13:17:26;;;;;;;1.02;0.90;;;;;;;6.72;78.99;98836.22;5144226;28;20033;-82
2021/12/04 13:19:58;;;;;;;0.50;0.50;;;;;;;6.72;79.19;98837.06;5154879;28;20049;-84
2021/12/04 13:22:31;;;;;;;0.50;0.50;;;;;;;6.81;78.63;98834.97;5165388;28;20535;-82
2021/12/04 13:25:09;;;;;;;0.40;0.40;;;;;;;6.72;79.27;98836.22;5159884;28;20487;-81
2021/12/04 13:30:15;;;;;;;0.85;0.85;;;;;;;6.74;78.85;98827.44;5164893;28;20107;-82
2021/12/04 13:32:46;;;;;;;1.15;1.15;;;;;;;6.72;79.60;98825.81;5186496;28;20240;-82
2021/12/04 13:35:21;;;;;;;0.60;0.60;;;;;;;6.79;78.88;98827.22;5162936;28;20048;-82
2021/12/04 13:37:58;;;;;;;0.50;0.50;;;;;;;6.77;79.00;98823.84;5178928;28;20034;-82
2021/12/04 13:40:29;;;;;;;0.82;0.82;;;;;;;6.77;79.21;98826.44;5162174;28;20042;-83
2021/12/04 13:42:59;;;;;;;0.60;0.60;;;;;;;6.81;79.28;98822.81;5157969;28;20069;-83
2021/12/04 13:45:30;;;;;;;2.05;1.20;;;;;;;6.84;79.30;98825.28;5143164;28;20045;-86
2021/12/04 13:48:00;;;;;;;0.70;0.70;;;;;;;6.92;79.01;98822.34;5140414;28;20084;-86
2021/12/04 13:53:14;;;;;;;0.98;0.98;;;;;;;6.84;79.23;98830.47;5161615;28;20037;-82
2021/12/04 13:55:50;;;;;;;1.33;1.25;;;;;;;6.82;79.08;98832.31;5149868;28;20479;-82
2021/12/04 13:58:21;;;;;;;2.42;1.40;;;;;;;6.87;78.80;98829.50;5158715;28;20460;-83
2021/12/04 14:00:51;;;;;;;1.80;1.70;;;;;;;6.88;78.56;98834.66;5184202;28;20052;-83
2021/12/04 14:03:28;;;;;;;9.23;2.03;;;;;;;6.85;78.89;98833.97;5158557;28;20255;-82
2021/12/04 14:05:58;;;;;;;1.13;1.13;;;;;;;6.84;78.41;98840.91;5160167;28;20099;-82
2021/12/04 14:08:29;;;;;;;4.68;3.53;;;;;;;6.89;78.54;98844.19;5161314;28;20117;-84
2021/12/04 14:10:59;;;;;;;1.17;1.17;;;;;;;6.85;78.97;98841.78;5178542;28;20029;-84
2021/12/04 14:13:30;;;;;;;1.13;1.13;;;;;;;6.77;79.39;98849.91;5144646;28;20026;-83
2021/12/04 14:16:01;;;;;;;0.77;0.77;;;;;;;6.86;78.78;98859.94;5171402;28;20022;-83
2021/12/04 14:18:34;;;;;;;0.65;0.65;;;;;;;6.87;78.88;98860.78;5163116;28;20037;-83
2021/12/04 14:21:06;;;;;;;0.85;0.85;;;;;;;6.82;79.26;98863.59;5178957;28;20029;-82
2021/12/04 14:23:36;;;;;;;0.40;0.40;;;;;;;6.82;79.09;98871.41;5186489;28;20037;-82
2021/12/04 14:41:28;;;;;;;0.55;0.55;;;;;;;6.48;80.18;98895.38;5176158;28;20007;-84
2021/12/04 15:25:25;;;;;;;0.35;0.35;;;;;;;5.91;82.42;98935.66;5177604;28;20463;-86
2021/12/04 15:28:28;;;;;;;0.60;0.60;;;;;;;6.07;81.20;98938.59;5151058;28;20041;-84
2021/12/04 15:31:23;;;;;;;0.43;0.43;;;;;;;5.96;82.13;98945.91;5170555;28;20053;-85
2021/12/04 15:34:02;;;;;;;0.60;0.60;;;;;;;5.84;83.00;98949.81;5134352;28;20047;-84
2021/12/04 15:36:39;;;;;;;0.88;0.88;;;;;;;5.96;82.28;98956.31;5157485;28;20519;-85
2021/12/04 15:39:31;;;;;;;0.40;0.40;;;;;;;5.95;82.29;98957.25;5166767;28;20416;-85
2021/12/04 15:42:23;;;;;;;0.40;0.40;;;;;;;5.88;82.23;98963.56;5177064;28;20444;-85
2021/12/04 15:48:05;;;;;;;1.10;1.10;;;;;;;6.02;81.48;98966.56;5175934;28;20037;-84
2021/12/04 15:50:57;;;;;;;0.40;0.40;;;;;;;5.95;81.82;98976.31;5175188;28;20046;-83
2021/12/04 15:53:29;;;;;;;0.73;0.73;;;;;;;6.04;81.72;98976.91;5174764;28;20247;-83
2021/12/04 15:56:01;;;;;;;0.57;0.57;;;;;;;6.08;81.88;98975.88;5163907;28;20041;-85
2021/12/04 15:58:35;;;;;;;3.33;0.82;;;;;;;5.91;82.06;98982.50;5158978;28;20025;-84
2021/12/04 16:08:42;;;;;;;0.40;0.40;;;;;;;5.76;83.71;98990.88;5176868;28;20068;-84
2021/12/04 16:11:15;;;;;;;0.38;0.38;;;;;;;5.87;83.30;98998.31;5163432;28;20028;-85
2021/12/04 16:13:53;;;;;;;;;;;;;;;5.72;84.74;98999.69;5142405;28;20041;-84
2021/12/04 16:16:29;;;;;;;0.40;0.40;;;;;;;5.78;84.02;99009.88;5160523;28;19944;-90
2021/12/04 16:19:16;;;;;;;0.60;0.60;;;;;;;5.72;83.95;99010.09;5184656;28;20140;-82
2021/12/04 16:25:39;;;;;;;0.45;0.45;;;;;;;5.80;84.10;99018.50;5176424;28;20117;-85
2021/12/04 16:29:11;;;;;;;1.58;1.48;;;;;;;5.65;85.08;99018.13;5144342;28;20028;-85
2021/12/04 16:32:13;;;;;;;0.40;0.40;;;;;;;5.72;85.25;99026.56;5174053;28;20053;-86
2021/12/04 16:35:22;;;;;;;0.55;0.55;;;;;;;5.78;84.33;99041.13;5175488;28;20128;-85
2021/12/04 17:04:33;;;;;;;;;;;;;;;5.79;84.32;99076.66;5174947;28;20121;-85
2021/12/04 17:07:28;;;;;;;0.57;0.57;;;;;;;5.65;85.90;99077.13;5157437;28;19922;-83
2021/12/04 17:10:13;;;;;;;1.38;0.73;;;;;;;5.64;85.67;99084.09;5172003;28;20531;-84
2021/12/04 17:13:21;;;;;;;0.60;0.60;;;;;;;5.66;86.05;99084.88;5177766;28;20037;-84
2021/12/04 17:23:55;;;;;;;0.50;0.50;;;;;;;5.57;85.88;99087.78;5190149;28;20051;-83